createdAt,value
2022-07-25T00:00:21.505Z,4.13
2022-07-25T00:03:03.566Z,4.05
2022-07-25T00:05:35.831Z,4.20
2022-07-25T00:08:04.766Z,4.07
2022-07-25T00:10:31.826Z,4.32
2022-07-25T00:12:58.652Z,3.53
2022-07-25T00:15:25.416Z,3.70
2022-07-25T00:17:52.350Z,4.15
2022-07-25T00:20:19.067Z,3.17
2022-07-25T00:22:45.840Z,3.70
2022-07-25T00:25:12.840Z,3.72
2022-07-25T00:27:39.589Z,3.55
2022-07-25T00:30:06.834Z,3.85
2022-07-25T00:32:33.975Z,3.80
2022-07-25T00:35:00.804Z,3.15
2022-07-25T00:37:27.583Z,3.92
2022-07-25T00:39:54.572Z,3.22
2022-07-25T00:42:21.854Z,3.45
2022-07-25T00:44:48.633Z,3.45
2022-07-25T00:47:15.646Z,3.67
2022-07-25T00:49:42.459Z,3.28
2022-07-25T00:52:09.424Z,3.55
2022-07-25T00:54:36.458Z,3.15
2022-07-25T00:57:03.565Z,3.10
2022-07-25T00:59:30.387Z,3.45
2022-07-25T01:01:57.433Z,3.45
2022-07-25T01:04:24.745Z,2.78
2022-07-25T01:06:51.787Z,3.20
2022-07-25T01:09:20.489Z,3.63
2022-07-25T01:11:47.324Z,3.20
2022-07-25T01:14:14.101Z,3.50
2022-07-25T01:16:41.350Z,3.80
2022-07-25T01:19:08.265Z,3.20
2022-07-25T01:21:42.396Z,3.28
2022-07-25T01:24:10.266Z,3.30
2022-07-25T01:26:38.142Z,3.63
2022-07-25T01:29:05.519Z,3.70
2022-07-25T01:31:32.775Z,3.38
2022-07-25T01:33:59.618Z,3.60
2022-07-25T01:36:26.577Z,3.58
2022-07-25T01:38:54.129Z,3.33
2022-07-25T01:41:22.681Z,3.17
2022-07-25T01:43:49.806Z,3.45
2022-07-25T01:46:16.974Z,3.40
2022-07-25T01:48:44.003Z,3.47
2022-07-25T01:51:11.213Z,3.90
2022-07-25T01:53:38.335Z,3.15
2022-07-25T01:56:06.271Z,3.58
2022-07-25T01:58:35.703Z,3.40
2022-07-25T02:01:02.786Z,4.07
2022-07-25T02:03:32.666Z,3.55
2022-07-25T02:06:05.706Z,4.15
2022-07-25T02:11:00.396Z,3.80
2022-07-25T02:13:27.355Z,3.65
2022-07-25T02:15:54.521Z,3.65
2022-07-25T02:18:21.352Z,3.85
2022-07-25T02:20:48.223Z,3.30
2022-07-25T02:23:15.182Z,4.25
2022-07-25T02:25:41.972Z,3.80
2022-07-25T02:28:10.582Z,3.85
2022-07-25T02:30:38.257Z,3.90
2022-07-25T02:33:05.238Z,3.83
2022-07-25T02:35:32.140Z,3.92
2022-07-25T02:37:59.154Z,3.70
2022-07-25T02:40:26.462Z,4.65
2022-07-25T02:42:53.219Z,3.70
2022-07-25T02:45:20.317Z,4.00
2022-07-25T02:47:47.099Z,4.18
2022-07-25T02:50:14.910Z,4.35
2022-07-25T02:52:43.147Z,3.88
2022-07-25T02:55:11.650Z,3.97
2022-07-25T02:57:38.524Z,4.57
2022-07-25T03:00:07.309Z,4.38
2022-07-25T03:02:34.165Z,3.47
2022-07-25T03:05:00.889Z,3.70
2022-07-25T03:07:27.836Z,4.47
2022-07-25T03:09:54.589Z,4.03
2022-07-25T03:12:21.363Z,4.45
2022-07-25T03:14:48.348Z,4.28
2022-07-25T03:17:15.119Z,4.00
2022-07-25T03:19:41.861Z,4.15
2022-07-25T03:22:08.925Z,4.35
2022-07-25T03:24:35.735Z,5.97
2022-07-25T03:27:02.520Z,5.88
2022-07-25T03:29:29.469Z,5.05
2022-07-25T03:31:56.420Z,5.38
2022-07-25T03:34:23.271Z,6.15
2022-07-25T03:36:50.218Z,4.40
2022-07-25T03:39:17.018Z,4.85
2022-07-25T03:41:43.789Z,4.95
2022-07-25T03:44:10.837Z,4.53
2022-07-25T03:46:37.661Z,4.72
2022-07-25T03:49:04.851Z,4.78
2022-07-25T03:51:31.883Z,4.32
2022-07-25T03:54:09.624Z,4.38
2022-07-25T03:56:50.861Z,4.75
2022-07-25T03:59:19.923Z,4.47
2022-07-25T04:01:48.811Z,4.40
2022-07-25T04:04:16.817Z,4.00
2022-07-25T04:06:43.998Z,3.97
2022-07-25T04:09:11.708Z,4.45
2022-07-25T04:11:38.819Z,4.32
2022-07-25T04:14:06.873Z,4.50
2022-07-25T04:16:34.838Z,4.40
2022-07-25T04:19:04.645Z,4.57
2022-07-25T04:21:33.421Z,4.30
2022-07-25T04:24:00.494Z,4.18
2022-07-25T04:26:27.267Z,4.22
2022-07-25T04:28:54.081Z,4.65
2022-07-25T04:31:21.064Z,4.43
2022-07-25T04:33:47.891Z,4.55
2022-07-25T04:36:14.623Z,4.32
2022-07-25T04:38:41.582Z,5.32
2022-07-25T04:41:08.343Z,5.13
2022-07-25T04:43:35.064Z,4.38
2022-07-25T04:46:02.143Z,4.68
2022-07-25T04:48:29.478Z,3.95
2022-07-25T04:50:56.312Z,4.32
2022-07-25T04:53:23.253Z,4.32
2022-07-25T04:55:50.297Z,4.07
2022-07-25T04:58:17.095Z,4.45
2022-07-25T05:00:44.453Z,4.38
2022-07-25T05:03:11.650Z,4.22
2022-07-25T05:05:38.565Z,4.65
2022-07-25T05:08:05.785Z,4.15
2022-07-25T05:10:32.623Z,4.10
2022-07-25T05:12:59.433Z,4.45
2022-07-25T05:15:26.774Z,4.72
2022-07-25T05:17:53.586Z,4.55
2022-07-25T05:20:20.403Z,4.53
2022-07-25T05:22:47.400Z,3.72
2022-07-25T05:25:14.504Z,4.00
2022-07-25T05:27:41.700Z,3.90
2022-07-25T05:30:10.899Z,3.83
2022-07-25T05:32:38.254Z,4.22
2022-07-25T05:35:08.034Z,4.05
2022-07-25T05:37:36.244Z,4.00
2022-07-25T05:40:04.555Z,3.83
2022-07-25T05:42:31.581Z,3.42
2022-07-25T05:44:58.640Z,4.55
2022-07-25T05:47:25.429Z,3.75
2022-07-25T05:49:52.316Z,3.38
2022-07-25T05:52:19.246Z,3.67
2022-07-25T05:54:46.051Z,3.80
2022-07-25T05:57:13.107Z,3.97
2022-07-25T05:59:40.103Z,3.60
2022-07-25T06:02:07.616Z,3.85
2022-07-25T06:04:34.385Z,5.63
2022-07-25T06:07:01.462Z,3.95
2022-07-25T06:09:28.319Z,3.40
2022-07-25T06:11:59.730Z,4.07
2022-07-25T06:14:28.743Z,3.95
2022-07-25T06:16:55.809Z,3.35
2022-07-25T06:19:23.124Z,4.20
2022-07-25T06:21:50.307Z,4.13
2022-07-25T06:24:17.196Z,3.05
2022-07-25T06:26:44.029Z,3.70
2022-07-25T06:29:11.310Z,3.88
2022-07-25T06:31:38.164Z,3.53
2022-07-25T06:34:05.258Z,3.50
2022-07-25T06:36:33.087Z,3.63
2022-07-25T06:39:00.492Z,3.88
2022-07-25T06:41:27.306Z,3.80
2022-07-25T06:43:54.337Z,4.15
2022-07-25T06:46:21.224Z,3.70
2022-07-25T06:48:48.080Z,3.78
2022-07-25T06:51:15.523Z,3.08
2022-07-25T06:53:42.341Z,3.35
2022-07-25T06:56:10.483Z,3.67
2022-07-25T06:58:39.145Z,3.45
2022-07-25T07:01:06.371Z,3.42
2022-07-25T07:03:38.090Z,3.50
2022-07-25T07:06:06.137Z,3.80
2022-07-25T07:08:33.693Z,3.53
2022-07-25T07:11:00.459Z,3.80
2022-07-25T07:13:27.552Z,3.22
2022-07-25T07:15:54.475Z,3.35
2022-07-25T07:18:21.599Z,3.40
2022-07-25T07:20:48.594Z,3.50
2022-07-25T07:23:16.930Z,3.30
2022-07-25T07:25:46.893Z,3.10
2022-07-25T07:28:14.627Z,3.55
2022-07-25T07:31:14.435Z,3.38
2022-07-25T07:33:28.736Z,3.13
2022-07-25T07:35:56.996Z,3.17
2022-07-25T07:38:24.478Z,3.30
2022-07-25T07:40:51.903Z,3.00
2022-07-25T07:43:18.660Z,3.28
2022-07-25T07:45:45.553Z,3.20
2022-07-25T07:48:12.613Z,3.40
2022-07-25T07:50:39.407Z,4.15
2022-07-25T07:53:06.822Z,3.08
2022-07-25T07:55:45.982Z,2.67
2022-07-25T07:58:18.216Z,3.22
2022-07-25T08:00:47.237Z,3.10
2022-07-25T08:03:21.423Z,3.70
2022-07-25T08:05:49.374Z,2.75
2022-07-25T08:08:16.647Z,3.15
2022-07-25T08:10:47.088Z,3.97
2022-07-25T08:13:18.316Z,3.38
2022-07-25T08:15:46.895Z,3.25
2022-07-25T08:18:17.186Z,3.15
2022-07-25T08:20:49.481Z,3.20
2022-07-25T08:23:17.219Z,3.20
2022-07-25T08:25:45.183Z,3.38
2022-07-25T08:28:13.232Z,3.10
2022-07-25T08:30:41.242Z,3.40
2022-07-25T08:33:13.767Z,3.00
2022-07-25T08:35:45.591Z,3.60
2022-07-25T08:38:12.318Z,3.25
2022-07-25T08:40:39.281Z,3.08
2022-07-25T08:43:06.306Z,3.25
2022-07-25T08:45:33.161Z,2.97
2022-07-25T08:47:59.979Z,3.38
2022-07-25T08:50:28.906Z,3.08
2022-07-25T08:53:16.309Z,3.40
2022-07-25T08:55:45.705Z,3.30
2022-07-25T08:58:14.394Z,3.42
2022-07-25T09:00:42.074Z,3.78
2022-07-25T09:03:10.445Z,3.58
2022-07-25T09:05:38.194Z,3.53
2022-07-25T09:08:12.149Z,3.20
2022-07-25T09:10:42.355Z,3.90
2022-07-25T09:13:14.350Z,2.95
2022-07-25T09:15:54.192Z,3.50
2022-07-25T09:18:27.345Z,3.17
2022-07-25T09:21:01.640Z,3.50
2022-07-25T09:23:39.307Z,3.60
2022-07-25T09:26:10.112Z,3.63
2022-07-25T09:28:49.622Z,4.25
2022-07-25T09:31:19.103Z,3.60
2022-07-25T09:33:51.785Z,3.63
2022-07-25T09:36:18.890Z,3.35
2022-07-25T09:38:55.892Z,4.13
2022-07-25T09:41:33.012Z,3.63
2022-07-25T09:43:59.871Z,3.28
2022-07-25T09:46:31.507Z,3.38
2022-07-25T09:49:00.572Z,3.63
2022-07-25T09:51:28.911Z,3.22
2022-07-25T09:53:56.125Z,3.50
2022-07-25T09:56:22.903Z,3.10
2022-07-25T09:58:49.649Z,3.50
2022-07-25T10:01:25.294Z,2.92
2022-07-25T10:04:20.997Z,3.17
2022-07-25T10:07:05.733Z,3.20
2022-07-25T10:09:46.382Z,3.75
2022-07-25T10:12:19.055Z,2.95
2022-07-25T10:15:04.204Z,3.25
2022-07-25T10:17:31.376Z,3.67
2022-07-25T10:19:58.999Z,3.60
2022-07-25T10:22:58.761Z,3.38
2022-07-25T10:25:26.409Z,3.05
2022-07-25T10:28:02.925Z,3.63
2022-07-25T10:30:38.669Z,2.65
2022-07-25T10:33:17.593Z,2.97
2022-07-25T10:35:45.597Z,3.35
2022-07-25T10:38:12.740Z,3.10
2022-07-25T10:40:44.847Z,3.60
2022-07-25T10:43:13.597Z,3.55
2022-07-25T10:45:49.154Z,3.38
2022-07-25T10:48:31.177Z,3.72
2022-07-25T10:51:03.763Z,3.65
2022-07-25T10:56:10.147Z,3.08
2022-07-25T10:58:49.076Z,3.67
2022-07-25T11:01:41.408Z,3.45
2022-07-25T11:04:15.718Z,3.85
2022-07-25T11:06:43.302Z,3.05
2022-07-25T11:09:22.651Z,3.30
2022-07-25T11:14:26.003Z,3.70
2022-07-25T11:16:56.038Z,3.85
2022-07-25T11:19:24.270Z,3.38
2022-07-25T11:21:57.645Z,5.68
2022-07-25T11:24:42.167Z,3.38
2022-07-25T11:27:12.640Z,3.72
2022-07-25T11:29:40.710Z,3.63
2022-07-25T11:32:14.666Z,4.00
2022-07-25T11:34:44.441Z,3.50
2022-07-25T11:37:12.981Z,4.07
2022-07-25T11:39:43.511Z,3.55
2022-07-25T11:42:13.064Z,3.47
2022-07-25T11:44:47.257Z,3.53
2022-07-25T11:47:29.416Z,3.45
2022-07-25T11:49:59.425Z,3.72
2022-07-25T11:52:27.823Z,3.10
2022-07-25T11:55:02.909Z,3.20
2022-07-25T11:57:33.511Z,2.92
2022-07-25T12:00:02.832Z,2.80
2022-07-25T12:02:32.311Z,3.00
2022-07-25T12:05:06.527Z,3.30
2022-07-25T12:07:40.562Z,3.15
2022-07-25T12:10:10.472Z,2.80
2022-07-25T12:12:45.213Z,2.83
2022-07-25T12:15:14.089Z,2.55
2022-07-25T12:17:41.360Z,2.70
2022-07-25T12:20:14.752Z,2.90
2022-07-25T12:22:42.772Z,2.60
2022-07-25T12:25:10.405Z,2.47
2022-07-25T12:27:37.533Z,3.00
2022-07-25T12:30:05.961Z,2.83
2022-07-25T12:32:33.152Z,2.05
2022-07-25T12:35:00.365Z,2.55
2022-07-25T12:37:27.908Z,2.22
2022-07-25T12:39:59.302Z,2.30
2022-07-25T12:42:27.219Z,2.20
2022-07-25T12:44:54.111Z,2.70
2022-07-25T12:47:25.021Z,2.63
2022-07-25T12:49:51.775Z,2.35
2022-07-25T12:52:18.542Z,2.67
2022-07-25T12:54:45.555Z,2.25
2022-07-25T12:57:14.132Z,2.25
2022-07-25T12:59:41.988Z,2.40
2022-07-25T13:02:09.760Z,2.47
2022-07-25T13:04:36.537Z,2.10
2022-07-25T13:07:03.392Z,2.67
2022-07-25T13:09:30.367Z,2.30
2022-07-25T13:11:57.459Z,2.53
2022-07-25T13:14:24.372Z,2.30
2022-07-25T13:16:52.007Z,2.33
2022-07-25T13:19:19.327Z,2.40
2022-07-25T13:21:46.293Z,2.20
2022-07-25T13:24:13.337Z,2.25
2022-07-25T13:26:40.160Z,2.40
2022-07-25T13:29:11.751Z,2.60
2022-07-25T13:31:41.238Z,2.55
2022-07-25T13:34:08.538Z,2.30
2022-07-25T13:36:36.811Z,2.53
2022-07-25T13:39:05.296Z,2.47
2022-07-25T13:41:32.352Z,2.58
2022-07-25T13:43:59.296Z,2.60
2022-07-25T13:46:26.353Z,2.55
2022-07-25T13:48:54.851Z,2.60
2022-07-25T13:51:21.757Z,2.40
2022-07-25T13:53:49.094Z,2.40
2022-07-25T13:56:16.163Z,2.63
2022-07-25T13:58:43.420Z,2.55
2022-07-25T14:01:12.611Z,2.38
2022-07-25T14:03:39.420Z,2.78
2022-07-25T14:06:10.209Z,2.65
2022-07-25T14:08:40.329Z,2.25
2022-07-25T14:11:08.358Z,2.50
2022-07-25T14:13:36.105Z,2.20
2022-07-25T14:16:03.562Z,2.80
2022-07-25T14:18:32.358Z,2.70
2022-07-25T14:20:59.683Z,3.17
2022-07-25T14:23:29.957Z,2.85
2022-07-25T14:25:58.547Z,2.90
2022-07-25T14:28:25.713Z,2.42
2022-07-25T14:30:52.865Z,2.65
2022-07-25T14:33:19.621Z,2.85
2022-07-25T14:35:46.453Z,2.15
2022-07-25T14:38:15.283Z,2.67
2022-07-25T14:40:42.740Z,2.65
2022-07-25T14:43:09.472Z,2.38
2022-07-25T14:45:37.207Z,2.78
2022-07-25T14:48:07.205Z,2.30
2022-07-25T14:50:34.079Z,2.60
2022-07-25T14:53:01.007Z,2.33
2022-07-25T14:55:27.762Z,2.30
2022-07-25T14:57:54.549Z,3.15
2022-07-25T15:00:23.780Z,2.42
2022-07-25T15:02:54.465Z,2.65
2022-07-25T15:05:21.353Z,2.50
2022-07-25T15:07:48.491Z,2.50
2022-07-25T15:10:15.238Z,2.40
2022-07-25T15:12:42.043Z,2.40
2022-07-25T15:15:09.111Z,2.42
2022-07-25T15:17:35.907Z,2.22
2022-07-25T15:20:02.666Z,2.30
2022-07-25T15:22:30.423Z,2.80
2022-07-25T15:25:34.803Z,2.30
2022-07-25T15:27:44.637Z,2.58
2022-07-25T15:30:11.633Z,2.70
2022-07-25T15:32:40.090Z,2.15
2022-07-25T15:35:09.435Z,2.88
2022-07-25T15:37:36.216Z,2.78
2022-07-25T15:40:03.918Z,2.30
2022-07-25T15:42:32.851Z,2.58
2022-07-25T15:45:30.263Z,2.50
2022-07-25T15:47:53.402Z,2.40
2022-07-25T15:50:20.497Z,2.30
2022-07-25T15:52:47.615Z,2.47
2022-07-25T15:55:14.915Z,2.60
2022-07-25T15:57:42.798Z,2.53
2022-07-25T16:00:10.078Z,2.55
2022-07-25T16:02:40.122Z,2.35
2022-07-25T16:05:07.074Z,2.58
2022-07-25T16:07:33.900Z,2.30
2022-07-25T16:10:00.861Z,2.92
2022-07-25T16:12:28.795Z,2.63
2022-07-25T16:14:56.456Z,2.40
2022-07-25T16:17:23.787Z,2.20
2022-07-25T16:19:50.528Z,2.70
2022-07-25T16:22:17.276Z,2.72
2022-07-25T16:24:44.426Z,2.30
2022-07-25T16:27:11.299Z,2.25
2022-07-25T16:29:38.677Z,2.70
2022-07-25T16:32:06.886Z,3.00
2022-07-25T16:34:33.998Z,2.83
2022-07-25T16:37:02.387Z,2.70
2022-07-25T16:39:29.759Z,2.35
2022-07-25T16:41:57.152Z,2.47
2022-07-25T16:44:23.930Z,2.78
2022-07-25T16:46:51.158Z,2.58
2022-07-25T16:49:18.267Z,2.45
2022-07-25T16:51:46.392Z,3.03
2022-07-25T16:54:13.487Z,2.83
2022-07-25T16:56:40.855Z,2.75
2022-07-25T16:59:10.113Z,2.40
2022-07-25T17:01:37.550Z,2.45
2022-07-25T17:04:04.924Z,2.42
2022-07-25T17:06:31.784Z,2.42
2022-07-25T17:08:58.855Z,2.80
2022-07-25T17:11:26.841Z,2.20
2022-07-25T17:13:53.591Z,2.30
2022-07-25T17:16:24.024Z,2.13
2022-07-25T17:18:50.781Z,2.13
2022-07-25T17:21:18.396Z,2.97
2022-07-25T17:23:47.078Z,2.22
2022-07-25T17:26:14.095Z,2.40
2022-07-25T17:28:40.848Z,2.75
2022-07-25T17:31:07.858Z,2.33
2022-07-25T17:33:34.889Z,2.60
2022-07-25T17:36:01.867Z,2.35
2022-07-25T17:38:34.450Z,2.33
2022-07-25T17:41:01.951Z,2.45
2022-07-25T17:43:29.225Z,2.40
2022-07-25T17:45:56.602Z,2.55
2022-07-25T17:48:23.474Z,2.78
2022-07-25T17:50:52.304Z,2.80
2022-07-25T17:53:19.226Z,2.30
2022-07-25T17:55:46.277Z,2.58
2022-07-25T17:58:13.692Z,2.40
2022-07-25T18:00:40.552Z,2.30
2022-07-25T18:03:07.577Z,3.00
2022-07-25T18:05:34.897Z,3.00
2022-07-25T18:08:03.076Z,2.80
2022-07-25T18:10:30.358Z,2.33
2022-07-25T18:13:00.258Z,2.25
2022-07-25T18:15:27.105Z,2.53
2022-07-25T18:17:54.082Z,2.95
2022-07-25T18:20:21.230Z,2.28
2022-07-25T18:22:48.036Z,2.50
2022-07-25T18:25:15.488Z,3.17
2022-07-25T18:27:45.134Z,2.55
2022-07-25T18:30:13.533Z,2.45
2022-07-25T18:32:40.869Z,2.30
2022-07-25T18:35:08.264Z,2.50
2022-07-25T18:37:36.987Z,2.75
2022-07-25T18:40:05.548Z,2.75
2022-07-25T18:42:32.896Z,2.92
2022-07-25T18:45:00.560Z,2.83
2022-07-25T18:47:32.145Z,2.72
2022-07-25T18:49:59.536Z,3.40
2022-07-25T18:52:29.023Z,5.82
2022-07-25T18:54:55.907Z,3.00
2022-07-25T18:57:22.930Z,3.13
2022-07-25T18:59:49.918Z,3.78
2022-07-25T19:02:16.983Z,3.00
2022-07-25T19:04:44.775Z,3.58
2022-07-25T19:07:12.523Z,2.92
2022-07-25T19:09:39.243Z,2.83
2022-07-25T19:12:07.294Z,2.53
2022-07-25T19:14:34.114Z,3.50
2022-07-25T19:17:02.336Z,3.47
2022-07-25T19:19:30.371Z,3.67
2022-07-25T19:21:57.360Z,3.22
2022-07-25T19:24:26.993Z,3.15
2022-07-25T19:26:54.414Z,3.42
2022-07-25T19:29:21.349Z,3.22
2022-07-25T19:31:48.420Z,3.33
2022-07-25T19:34:15.659Z,3.13
2022-07-25T19:36:45.902Z,3.42
2022-07-25T19:39:13.254Z,3.00
2022-07-25T19:41:46.174Z,3.00
2022-07-25T19:44:13.719Z,3.13
2022-07-25T19:46:40.740Z,3.13
2022-07-25T19:49:08.032Z,5.20
2022-07-25T19:51:34.937Z,3.83
2022-07-25T19:54:03.525Z,3.92
2022-07-25T19:56:31.320Z,3.17
2022-07-25T19:58:58.207Z,2.75
2022-07-25T20:01:25.101Z,4.07
2022-07-25T20:03:52.184Z,3.90
2022-07-25T20:06:20.701Z,3.20
2022-07-25T20:08:48.348Z,3.50
2022-07-25T20:11:15.764Z,3.55
2022-07-25T20:13:42.606Z,3.55
2022-07-25T20:16:09.647Z,3.55
2022-07-25T20:18:36.735Z,4.30
2022-07-25T20:21:04.083Z,3.85
2022-07-25T20:23:30.859Z,4.43
2022-07-25T20:25:57.879Z,3.70
2022-07-25T20:28:24.694Z,4.15
2022-07-25T20:30:51.601Z,3.35
2022-07-25T20:33:19.309Z,4.22
2022-07-25T20:35:46.769Z,4.28
2022-07-25T20:38:13.500Z,4.35
2022-07-25T20:40:48.270Z,4.03
2022-07-25T20:43:16.748Z,4.28
2022-07-25T20:45:47.493Z,4.28
2022-07-25T20:48:14.622Z,4.30
2022-07-25T20:50:42.364Z,4.50
2022-07-25T20:53:09.641Z,4.60
2022-07-25T20:55:37.140Z,4.65
2022-07-25T20:58:04.952Z,4.57
2022-07-25T21:00:32.415Z,5.07
2022-07-25T21:02:59.524Z,4.43
2022-07-25T21:05:27.301Z,3.90
2022-07-25T21:07:54.285Z,4.70
2022-07-25T21:10:21.284Z,3.97
2022-07-25T21:12:48.120Z,3.30
2022-07-25T21:15:15.319Z,4.10
2022-07-25T21:17:42.322Z,4.28
2022-07-25T21:20:11.479Z,4.90
2022-07-25T21:22:39.012Z,4.43
2022-07-25T21:25:07.098Z,4.60
2022-07-25T21:27:34.005Z,4.35
2022-07-25T21:30:01.063Z,4.43
2022-07-25T21:32:28.287Z,4.22
2022-07-25T21:34:55.236Z,4.35
2022-07-25T21:37:22.316Z,4.70
2022-07-25T21:39:49.131Z,5.20
2022-07-25T21:42:16.045Z,4.40
2022-07-25T21:44:45.343Z,4.70
2022-07-25T21:47:12.816Z,6.72
2022-07-25T21:49:58.075Z,5.22
2022-07-25T21:52:30.173Z,4.55
2022-07-25T21:55:02.867Z,4.38
2022-07-25T21:57:29.800Z,4.55
2022-07-25T21:59:56.614Z,5.47
2022-07-25T22:02:23.680Z,4.72
2022-07-25T22:04:51.075Z,4.95
2022-07-25T22:07:18.546Z,5.28
2022-07-25T22:09:45.646Z,5.35
2022-07-25T22:12:12.712Z,4.78
2022-07-25T22:14:39.488Z,4.78
2022-07-25T22:17:06.266Z,5.07
2022-07-25T22:19:33.754Z,4.32
2022-07-25T22:22:00.534Z,6.13
2022-07-25T22:24:27.276Z,5.15
2022-07-25T22:26:54.300Z,5.05
2022-07-25T22:29:21.149Z,6.72
2022-07-25T22:31:48.099Z,5.75
2022-07-25T22:34:15.074Z,5.00
2022-07-25T22:36:41.871Z,4.57
2022-07-25T22:39:08.997Z,4.35
2022-07-25T22:41:36.290Z,4.35
2022-07-25T22:44:03.815Z,4.05
2022-07-25T22:46:31.188Z,4.50
2022-07-25T22:48:59.009Z,4.25
2022-07-25T22:51:26.799Z,4.00
2022-07-25T22:53:53.572Z,4.70
2022-07-25T22:56:20.869Z,4.20
2022-07-25T22:58:49.019Z,4.55
2022-07-25T23:01:17.506Z,3.90
2022-07-25T23:03:45.391Z,4.22
2022-07-25T23:06:12.619Z,4.68
2022-07-25T23:08:39.484Z,4.13
2022-07-25T23:11:06.463Z,4.03
2022-07-25T23:13:34.845Z,3.78
2022-07-25T23:16:03.451Z,4.40
2022-07-25T23:18:31.084Z,3.97
2022-07-25T23:20:57.907Z,4.38
2022-07-25T23:23:24.694Z,4.45
2022-07-25T23:25:51.878Z,3.88
2022-07-25T23:28:18.856Z,5.57
2022-07-25T23:30:45.699Z,4.18
2022-07-25T23:33:12.641Z,4.07
2022-07-25T23:35:39.393Z,4.07
2022-07-25T23:38:06.149Z,3.40
2022-07-25T23:40:33.141Z,3.60
2022-07-25T23:42:59.969Z,3.70
2022-07-25T23:45:28.134Z,4.00
2022-07-25T23:47:56.810Z,4.15
2022-07-25T23:50:24.120Z,3.85
2022-07-25T23:52:51.634Z,3.83
2022-07-25T23:55:18.614Z,3.83
2022-07-25T23:57:45.366Z,4.13
